Nagqu, China
Current Conditions -  °F | °C
As of 1:50 AM on Friday 31 Oct 2014 (Local Time) from VNKT Reporting Station
Haze Haze  
Wind Chill: 59°   Ceiling: Unl
Heat Index: 59°   Visibility: 2.5mi
Dew Point: 55°   Wind: 0mph
Humidity: 88%   Direction: NA
Pressure: 30.12"   Gusts: NA
Location:  31.48°N, 92.07°E
Report Text: VNKT 301750Z 00000KT 4000 BR FEW020 SCT100 15/13 Q1020 NOSIG
Loading
Personal Weather Stations






























Interactive Weather Map
Tropical Storm Tracking
New forecast layout! Learn more

10-Day Weather Forecast

Advertisements
Track Severe Weather on mobile